Time;durP1;ratioP1;P1;durP2;ratioP2;P2;SDS_P1;SDS_P2;PMS_P1;PMS_P2;Temp;Humidity;BMP_temperature;BMP_pressure;BME280_temperature;BME280_humidity;BME280_pressure;Samples;Min_cycle;Max_cycle;Signal;HPM_P1;HPM_P2
2021/09/01 00:02:05;;;;;;;;;;;16.30;94.80;;;;;;5110106;28;19912;-69
2021/09/01 00:04:32;;;;;;;;;;;16.40;95.00;;;;;;5110008;28;20397;-69
2021/09/01 00:07:00;;;;;;;;;;;16.40;95.00;;;;;;5109800;28;19916;-67
2021/09/01 00:09:26;;;;;;;;;;;16.50;94.60;;;;;;5109560;28;20033;-68
2021/09/01 00:11:53;;;;;;;;;;;16.60;94.30;;;;;;5109653;28;19908;-68
2021/09/01 00:14:22;;;;;;;;;;;16.70;94.80;;;;;;5109853;28;19909;-68
2021/09/01 00:16:49;;;;;;;;;;;16.80;94.20;;;;;;5109585;28;19908;-68
2021/09/01 00:19:15;;;;;;;;;;;16.90;94.50;;;;;;5109538;28;20366;-68
2021/09/01 00:21:42;;;;;;;;;;;17.00;94.80;;;;;;5109341;28;19915;-68
2021/09/01 00:24:09;;;;;;;;;;;17.00;94.20;;;;;;5109427;28;19961;-68
2021/09/01 00:26:36;;;;;;;;;;;17.20;94.00;;;;;;5109623;28;19916;-68
2021/09/01 00:29:03;;;;;;;;;;;17.20;94.40;;;;;;5109695;28;19907;-69
2021/09/01 00:31:30;;;;;;;;;;;17.30;94.50;;;;;;5109127;28;19912;-68
2021/09/01 00:33:57;;;;;;;;;;;17.40;95.00;;;;;;5109405;28;19908;-69
2021/09/01 00:36:23;;;;;;;;;;;17.50;94.60;;;;;;5109380;28;19908;-68
2021/09/01 00:38:50;;;;;;;;;;;17.70;94.50;;;;;;5109438;28;20356;-68
2021/09/01 00:41:18;;;;;;;;;;;17.80;94.20;;;;;;5109198;28;19915;-68
2021/09/01 00:43:48;;;;;;;;;;;17.80;94.30;;;;;;5109019;28;20267;-68
2021/09/01 00:46:16;;;;;;;;;;;17.80;94.00;;;;;;5108764;28;20408;-68
2021/09/01 00:48:42;;;;;;;;;;;17.90;94.20;;;;;;5109137;28;20018;-69
2021/09/01 00:51:09;;;;;;;;;;;18.00;94.20;;;;;;5109105;28;19908;-69
2021/09/01 00:53:38;;;;;;;;;;;18.10;93.70;;;;;;5108786;28;19934;-68
2021/09/01 00:56:05;;;;;;;;;;;18.10;93.40;;;;;;5109101;28;20330;-68
2021/09/01 00:58:36;;;;;;;;;;;18.20;93.40;;;;;;5096524;28;20322;-68
2021/09/01 01:03:39;;;;;;;;;;;18.30;93.10;;;;;;5095159;28;19995;-68
2021/09/01 01:06:06;;;;;;;;;;;18.40;93.20;;;;;;5095140;28;19963;-68
2021/09/01 01:08:32;;;;;;;;;;;18.40;93.30;;;;;;5095104;28;19908;-69
2021/09/01 01:11:00;;;;;;;;;;;18.70;92.90;;;;;;5095196;28;19952;-69
2021/09/01 01:13:27;;;;;;;;;;;19.10;92.20;;;;;;5095235;28;19908;-69
2021/09/01 01:15:54;;;;;;;;;;;19.60;91.20;;;;;;5094952;28;19952;-68
2021/09/01 01:18:21;;;;;;;;;;;19.90;90.30;;;;;;5095185;28;19912;-69
2021/09/01 01:20:48;;;;;;;;;;;20.20;90.00;;;;;;5095083;28;19908;-68
2021/09/01 01:23:18;;;;;;;;;;;20.50;85.90;;;;;;5095215;28;19912;-68
2021/09/01 01:25:45;;;;;;;;;;;20.80;83.90;;;;;;5094713;28;20306;-69
2021/09/01 01:28:12;;;;;;;;;;;20.70;84.10;;;;;;5093574;28;20317;-68
2021/09/01 01:30:39;;;;;;;;;;;20.50;84.40;;;;;;5094933;28;19966;-68
2021/09/01 01:33:06;;;;;;;;;;;20.50;81.90;;;;;;5094959;28;19918;-69
2021/09/01 01:35:40;;;;;;;;;;;20.60;81.20;;;;;;5094914;28;19960;-69
2021/09/01 01:38:09;;;;;;;;;;;20.50;79.10;;;;;;5095436;28;19968;-70
2021/09/01 01:40:38;;;;;;;;;;;20.30;77.20;;;;;;5095036;28;19912;-68
2021/09/01 01:43:05;;;;;;;;;;;20.20;78.70;;;;;;5095001;28;19908;-69
2021/09/01 01:45:41;;;;;;;;;;;20.20;79.40;;;;;;5094078;28;19973;-71
2021/09/01 01:48:09;;;;;;;;;;;20.20;78.70;;;;;;5094726;28;19907;-69
2021/09/01 01:50:36;;;;;;;;;;;20.20;79.40;;;;;;5094527;28;20286;-70
2021/09/01 01:53:03;;;;;;;;;;;20.20;80.60;;;;;;5094474;28;19908;-69
2021/09/01 01:55:30;;;;;;;;;;;20.20;80.90;;;;;;5094447;28;19908;-69
2021/09/01 01:57:57;;;;;;;;;;;20.10;79.80;;;;;;5094481;28;19908;-69
2021/09/01 02:00:24;;;;;;;;;;;20.20;81.30;;;;;;5094439;28;20011;-69
2021/09/01 02:02:50;;;;;;;;;;;20.30;80.80;;;;;;5094159;28;19908;-69
2021/09/01 02:05:18;;;;;;;;;;;20.30;80.80;;;;;;5094078;28;19915;-69
2021/09/01 02:07:44;;;;;;;;;;;20.10;80.90;;;;;;5093967;28;20341;-69
2021/09/01 02:10:11;;;;;;;;;;;20.10;80.80;;;;;;5092995;28;19912;-68
2021/09/01 02:12:39;;;;;;;;;;;20.10;80.90;;;;;;5093950;28;19915;-69
2021/09/01 02:15:07;;;;;;;;;;;20.00;81.00;;;;;;5093952;28;19915;-69
2021/09/01 02:17:34;;;;;;;;;;;20.10;78.90;;;;;;5093663;28;19952;-69
2021/09/01 02:20:01;;;;;;;;;;;20.10;79.50;;;;;;5093972;28;19953;-69
2021/09/01 02:22:28;;;;;;;;;;;20.00;81.10;;;;;;5093941;28;19915;-68
2021/09/01 02:24:54;;;;;;;;;;;20.10;80.70;;;;;;5093827;28;20255;-69
2021/09/01 02:27:21;;;;;;;;;;;20.10;81.20;;;;;;5093592;28;19923;-69
2021/09/01 02:29:48;;;;;;;;;;;20.10;80.50;;;;;;5093295;28;19931;-69
2021/09/01 02:32:14;;;;;;;;;;;20.50;77.50;;;;;;5093543;28;19908;-69
2021/09/01 02:34:41;;;;;;;;;;;20.60;76.80;;;;;;5093603;28;19908;-69
2021/09/01 02:37:08;;;;;;;;;;;20.60;75.70;;;;;;5093455;28;19915;-69
2021/09/01 02:39:34;;;;;;;;;;;20.50;76.30;;;;;;5093111;28;19916;-69
2021/09/01 02:42:01;;;;;;;;;;;20.50;76.40;;;;;;5093530;28;19915;-69
2021/09/01 02:44:29;;;;;;;;;;;20.30;77.70;;;;;;5093631;28;19973;-69
2021/09/01 02:46:55;;;;;;;;;;;20.10;77.10;;;;;;5091591;28;20374;-68
2021/09/01 02:49:22;;;;;;;;;;;20.20;77.30;;;;;;5093131;28;19908;-69
2021/09/01 02:51:49;;;;;;;;;;;20.30;75.80;;;;;;5092919;28;19915;-68
2021/09/01 02:54:15;;;;;;;;;;;20.40;75.80;;;;;;5093140;28;20263;-68
2021/09/01 02:56:42;;;;;;;;;;;20.60;75.70;;;;;;5093254;28;20354;-69
2021/09/01 02:59:09;;;;;;;;;;;20.70;75.60;;;;;;5092905;28;20022;-68
2021/09/01 03:01:35;;;;;;;;;;;20.80;74.30;;;;;;5092562;28;19947;-68
2021/09/01 03:04:02;;;;;;;;;;;20.60;75.00;;;;;;5093254;28;19908;-67
2021/09/01 03:06:29;;;;;;;;;;;20.50;73.30;;;;;;5092925;28;19920;-68
2021/09/01 03:08:55;;;;;;;;;;;20.50;72.90;;;;;;5092870;28;19997;-68
2021/09/01 03:11:22;;;;;;;;;;;20.50;68.20;;;;;;5092748;28;20302;-68
2021/09/01 03:13:48;;;;;;;;;;;20.70;67.30;;;;;;5092686;28;19909;-68
2021/09/01 03:16:15;;;;;;;;;;;20.90;67.10;;;;;;5092444;28;19912;-68
2021/09/01 03:18:42;;;;;;;;;;;20.90;68.30;;;;;;5092574;28;19908;-68
2021/09/01 03:21:09;;;;;;;;;;;20.90;68.70;;;;;;5092692;28;19915;-68
2021/09/01 03:23:36;;;;;;;;;;;21.10;68.30;;;;;;5092239;28;19908;-68
2021/09/01 03:26:04;;;;;;;;;;;20.90;67.80;;;;;;5092608;28;19923;-68
2021/09/01 03:28:30;;;;;;;;;;;20.80;69.90;;;;;;5092669;28;19948;-68
2021/09/01 03:30:57;;;;;;;;;;;20.80;74.40;;;;;;5092397;28;19908;-67
2021/09/01 03:33:24;;;;;;;;;;;21.30;76.10;;;;;;5092693;28;19936;-68
2021/09/01 03:35:50;;;;;;;;;;;21.70;75.00;;;;;;5092320;28;19912;-68
2021/09/01 03:38:17;;;;;;;;;;;21.80;75.80;;;;;;5092673;28;19912;-68
2021/09/01 03:40:44;;;;;;;;;;;21.80;74.00;;;;;;5092443;28;19915;-68
2021/09/01 03:43:10;;;;;;;;;;;21.70;73.20;;;;;;5092652;28;20386;-68
2021/09/01 03:45:37;;;;;;;;;;;21.40;74.10;;;;;;5091802;28;19927;-68
2021/09/01 03:48:04;;;;;;;;;;;21.30;76.00;;;;;;5092236;28;20395;-68
2021/09/01 03:50:31;;;;;;;;;;;21.20;75.80;;;;;;5092326;28;20351;-68
2021/09/01 03:52:57;;;;;;;;;;;21.20;75.10;;;;;;5092539;28;20390;-68
2021/09/01 03:55:24;;;;;;;;;;;21.20;74.40;;;;;;5092521;28;20378;-68
2021/09/01 03:57:51;;;;;;;;;;;21.10;75.00;;;;;;5092256;28;19971;-68
2021/09/01 04:00:17;;;;;;;;;;;21.10;74.50;;;;;;5092336;28;20282;-68
2021/09/01 04:02:44;;;;;;;;;;;21.20;74.00;;;;;;5092708;28;19909;-68
2021/09/01 04:05:11;;;;;;;;;;;21.30;72.10;;;;;;5091078;28;20029;-68
2021/09/01 04:07:37;;;;;;;;;;;21.20;72.00;;;;;;5092053;28;19909;-69
2021/09/01 04:10:04;;;;;;;;;;;21.00;72.70;;;;;;5092280;28;19909;-68
2021/09/01 04:12:31;;;;;;;;;;;20.80;73.60;;;;;;5092554;28;19915;-68
2021/09/01 04:14:58;;;;;;;;;;;20.80;74.60;;;;;;5091966;28;19974;-68
2021/09/01 04:17:29;;;;;;;;;;;20.80;73.80;;;;;;5092192;28;19953;-68
2021/09/01 04:19:56;;;;;;;;;;;20.80;73.10;;;;;;5092204;28;19999;-69
2021/09/01 04:22:23;;;;;;;;;;;20.80;77.10;;;;;;5092147;28;19908;-69
2021/09/01 04:24:49;;;;;;;;;;;20.80;79.20;;;;;;5092176;28;20289;-69
2021/09/01 04:27:16;;;;;;;;;;;20.70;82.80;;;;;;5092135;28;19923;-69
2021/09/01 04:29:43;;;;;;;;;;;20.70;84.10;;;;;;5091825;28;19908;-69
2021/09/01 04:32:09;;;;;;;;;;;20.50;83.20;;;;;;5092622;28;19908;-68
2021/09/01 04:34:36;;;;;;;;;;;20.40;82.00;;;;;;5096046;28;19908;-69
2021/09/01 04:37:02;;;;;;;;;;;20.30;84.10;;;;;;5096065;28;19916;-68
2021/09/01 04:39:29;;;;;;;;;;;20.20;84.20;;;;;;5095792;28;19914;-69
2021/09/01 04:41:56;;;;;;;;;;;20.30;85.90;;;;;;5095806;28;19908;-69
2021/09/01 04:44:22;;;;;;;;;;;20.30;87.40;;;;;;5095874;28;19915;-69
2021/09/01 04:46:49;;;;;;;;;;;20.30;84.60;;;;;;5095356;28;20336;-69
2021/09/01 04:49:16;;;;;;;;;;;20.30;84.40;;;;;;5095607;28;19928;-70
2021/09/01 04:51:42;;;;;;;;;;;20.20;89.10;;;;;;5095299;28;19909;-69
2021/09/01 04:54:09;;;;;;;;;;;20.30;89.00;;;;;;5095395;28;19908;-69
2021/09/01 04:56:36;;;;;;;;;;;20.10;88.30;;;;;;5095402;28;19995;-69
2021/09/01 04:59:02;;;;;;;;;;;20.10;89.20;;;;;;5095402;28;19908;-69
2021/09/01 05:01:29;;;;;;;;;;;20.10;89.40;;;;;;5095203;28;19928;-68
2021/09/01 05:03:55;;;;;;;;;;;19.90;89.20;;;;;;5095381;28;19965;-69
2021/09/01 05:06:22;;;;;;;;;;;19.90;87.10;;;;;;5095337;28;19920;-68
2021/09/01 05:08:50;;;;;;;;;;;19.90;89.10;;;;;;5095318;28;19912;-68
2021/09/01 05:11:16;;;;;;;;;;;19.80;86.60;;;;;;5095138;28;19909;-69
2021/09/01 05:13:43;;;;;;;;;;;19.70;85.90;;;;;;5094916;28;20358;-68
2021/09/01 05:16:10;;;;;;;;;;;19.80;86.20;;;;;;5095096;28;19915;-68
2021/09/01 05:18:37;;;;;;;;;;;19.80;86.80;;;;;;5095064;28;20362;-69
2021/09/01 05:21:04;;;;;;;;;;;19.80;85.00;;;;;;5094824;28;19931;-69
2021/09/01 05:23:32;;;;;;;;;;;19.80;85.10;;;;;;5094922;28;19908;-68
2021/09/01 05:26:03;;;;;;;;;;;19.90;84.90;;;;;;5095047;28;19912;-69
2021/09/01 05:28:39;;;;;;;;;;;19.80;84.00;;;;;;5095097;28;19912;-69
2021/09/01 05:31:07;;;;;;;;;;;19.80;83.90;;;;;;5094784;28;19935;-69
2021/09/01 05:33:36;;;;;;;;;;;19.70;85.20;;;;;;5094493;28;19908;-69
2021/09/01 05:36:04;;;;;;;;;;;19.70;85.10;;;;;;5094795;28;19908;-69
2021/09/01 05:38:32;;;;;;;;;;;19.70;85.70;;;;;;5094957;28;19986;-69
2021/09/01 05:41:02;;;;;;;;;;;19.70;86.50;;;;;;5094714;28;19908;-69
2021/09/01 05:43:29;;;;;;;;;;;19.60;87.40;;;;;;5094557;28;19908;-69
2021/09/01 05:45:56;;;;;;;;;;;19.50;86.10;;;;;;5094081;28;20023;-69
2021/09/01 05:48:23;;;;;;;;;;;19.50;85.10;;;;;;5094540;28;19943;-69
2021/09/01 05:50:54;;;;;;;;;;;19.50;86.00;;;;;;5093150;28;20460;-69
2021/09/01 05:53:21;;;;;;;;;;;19.40;86.70;;;;;;5094254;28;19977;-69
2021/09/01 05:55:49;;;;;;;;;;;19.40;83.00;;;;;;5094037;28;20000;-69
2021/09/01 05:58:18;;;;;;;;;;;19.40;83.00;;;;;;5094360;28;20006;-69
2021/09/01 06:00:46;;;;;;;;;;;19.40;84.70;;;;;;5094259;28;19907;-68
2021/09/01 06:03:23;;;;;;;;;;;19.50;85.00;;;;;;5094315;28;19918;-69
2021/09/01 06:05:53;;;;;;;;;;;19.50;84.70;;;;;;5093843;28;19912;-69
2021/09/01 06:08:21;;;;;;;;;;;19.40;86.10;;;;;;5094017;28;19908;-69
2021/09/01 06:10:48;;;;;;;;;;;19.30;85.40;;;;;;5093836;28;19915;-69
2021/09/01 06:13:15;;;;;;;;;;;19.30;88.20;;;;;;5093861;28;19912;-69
2021/09/01 06:15:42;;;;;;;;;;;19.30;87.00;;;;;;5093559;28;20053;-69
2021/09/01 06:18:09;;;;;;;;;;;19.40;85.90;;;;;;5093909;28;20002;-68
2021/09/01 06:20:37;;;;;;;;;;;19.30;86.30;;;;;;5126710;27;19919;-68
2021/09/01 06:23:04;;;;;;;;;;;19.40;86.00;;;;;;5093836;28;20274;-69
2021/09/01 06:25:31;;;;;;;;;;;19.30;86.50;;;;;;5093341;28;20628;-68
2021/09/01 06:27:58;;;;;;;;;;;19.30;87.20;;;;;;5093693;28;19919;-68
2021/09/01 06:30:25;;;;;;;;;;;19.30;85.40;;;;;;5093529;28;19908;-67
2021/09/01 06:32:51;;;;;;;;;;;19.30;86.70;;;;;;5093594;28;19916;-68
2021/09/01 06:35:18;;;;;;;;;;;19.30;83.20;;;;;;5092254;28;19909;-67
2021/09/01 06:37:45;;;;;;;;;;;19.20;83.20;;;;;;5093434;28;19935;-69
2021/09/01 06:40:14;;;;;;;;;;;19.20;85.00;;;;;;5093585;28;19919;-69
2021/09/01 06:42:41;;;;;;;;;;;19.20;84.10;;;;;;5093601;28;19968;-69
2021/09/01 06:45:09;;;;;;;;;;;19.10;85.20;;;;;;5093087;28;20320;-69
2021/09/01 06:47:51;;;;;;;;;;;19.00;86.70;;;;;;5093006;28;20027;-69
2021/09/01 06:50:19;;;;;;;;;;;19.00;87.70;;;;;;5093436;28;19915;-67
2021/09/01 06:52:47;;;;;;;;;;;18.90;87.90;;;;;;5090359;28;19915;-67
2021/09/01 06:55:15;;;;;;;;;;;18.80;88.60;;;;;;5090883;28;20359;-68
2021/09/01 06:57:42;;;;;;;;;;;18.70;89.10;;;;;;5090940;28;19912;-69
2021/09/01 07:00:10;;;;;;;;;;;18.70;89.60;;;;;;5090877;28;19963;-68
2021/09/01 07:02:37;;;;;;;;;;;18.60;90.30;;;;;;5091195;28;19908;-69
2021/09/01 07:05:04;;;;;;;;;;;18.60;90.70;;;;;;5090813;28;19908;-68
2021/09/01 07:07:31;;;;;;;;;;;18.60;91.20;;;;;;5090841;28;19915;-68
2021/09/01 07:09:58;;;;;;;;;;;18.50;91.70;;;;;;5090979;28;20389;-69
2021/09/01 07:12:25;;;;;;;;;;;18.40;92.10;;;;;;5090734;28;19912;-69
2021/09/01 07:14:52;;;;;;;;;;;18.40;92.30;;;;;;5090278;28;19994;-68
2021/09/01 07:17:19;;;;;;;;;;;18.40;92.50;;;;;;5090586;28;20003;-69
2021/09/01 07:19:45;;;;;;;;;;;18.40;93.00;;;;;;5090702;28;19916;-68
2021/09/01 07:22:12;;;;;;;;;;;18.20;93.40;;;;;;5123265;27;19948;-68
2021/09/01 07:24:39;;;;;;;;;;;18.20;93.80;;;;;;5090887;28;19915;-68
2021/09/01 07:27:05;;;;;;;;;;;18.10;94.40;;;;;;5090633;28;20382;-68
2021/09/01 07:29:33;;;;;;;;;;;18.10;95.40;;;;;;5090372;28;20348;-68
2021/09/01 07:31:59;;;;;;;;;;;18.00;96.40;;;;;;5090411;28;20003;-69
2021/09/01 07:34:26;;;;;;;;;;;18.00;97.20;;;;;;5090556;28;19912;-68
2021/09/01 07:36:53;;;;;;;;;;;18.10;98.40;;;;;;5090828;28;19914;-69
2021/09/01 07:39:19;;;;;;;;;;;18.00;99.00;;;;;;5090498;28;19908;-68
2021/09/01 07:41:46;;;;;;;;;;;18.00;99.70;;;;;;5105686;28;20256;-68
2021/09/01 07:44:13;;;;;;;;;;;17.90;99.90;;;;;;5090130;28;20012;-68
2021/09/01 07:46:40;;;;;;;;;;;17.90;99.90;;;;;;5090163;28;20046;-69
2021/09/01 07:49:07;;;;;;;;;;;17.80;99.90;;;;;;5090436;28;20348;-69
2021/09/01 07:51:33;;;;;;;;;;;17.90;99.90;;;;;;5090146;28;19912;-69
2021/09/01 07:54:00;;;;;;;;;;;17.90;99.90;;;;;;5090422;28;19908;-68
2021/09/01 07:56:27;;;;;;;;;;;17.80;99.90;;;;;;5122525;28;19912;-68
2021/09/01 07:58:53;;;;;;;;;;;17.80;99.90;;;;;;5075608;28;20355;-68
2021/09/01 08:01:20;;;;;;;;;;;17.80;99.90;;;;;;5070326;28;19973;-68
2021/09/01 08:03:47;;;;;;;;;;;17.70;99.90;;;;;;5070004;28;19909;-68
2021/09/01 08:06:13;;;;;;;;;;;17.70;99.90;;;;;;5070025;28;19917;-69
2021/09/01 08:08:40;;;;;;;;;;;17.60;99.90;;;;;;5105826;28;20432;-68
2021/09/01 08:11:07;;;;;;;;;;;17.60;99.90;;;;;;5073791;28;19916;-68
2021/09/01 08:13:33;;;;;;;;;;;17.60;99.90;;;;;;5073342;28;19915;-68
2021/09/01 08:16:00;;;;;;;;;;;17.50;99.90;;;;;;5074142;28;19948;-68
2021/09/01 08:18:27;;;;;;;;;;;17.50;99.90;;;;;;5074252;28;20290;-68
2021/09/01 08:20:53;;;;;;;;;;;17.50;99.90;;;;;;5074013;28;20091;-68
2021/09/01 08:23:20;;;;;;;;;;;17.50;99.90;;;;;;5073599;28;19915;-68
2021/09/01 08:25:46;;;;;;;;;;;17.50;99.90;;;;;;5073629;28;19920;-68
2021/09/01 08:28:13;;;;;;;;;;;17.40;99.90;;;;;;5073291;28;19928;-69
2021/09/01 08:30:40;;;;;;;;;;;17.30;99.90;;;;;;5073710;28;20270;-69
2021/09/01 08:33:07;;;;;;;;;;;17.30;99.90;;;;;;5074318;28;19912;-69
2021/09/01 08:35:34;;;;;;;;;;;17.40;99.90;;;;;;5076443;28;19915;-69
2021/09/01 08:38:01;;;;;;;;;;;17.40;99.90;;;;;;5076126;28;19908;-69
2021/09/01 08:40:27;;;;;;;;;;;17.30;99.90;;;;;;5075428;28;19950;-69
2021/09/01 08:42:54;;;;;;;;;;;17.30;99.90;;;;;;5073458;28;19908;-69
2021/09/01 08:45:21;;;;;;;;;;;17.30;99.90;;;;;;5073425;28;19913;-69
2021/09/01 08:47:48;;;;;;;;;;;17.20;99.90;;;;;;5073427;28;20232;-69
2021/09/01 08:50:15;;;;;;;;;;;17.20;99.90;;;;;;5073191;28;19908;-69
2021/09/01 08:52:41;;;;;;;;;;;17.10;99.90;;;;;;5073885;28;19909;-69
2021/09/01 08:55:09;;;;;;;;;;;17.20;99.90;;;;;;5073603;28;19920;-69
2021/09/01 08:57:36;;;;;;;;;;;17.20;99.90;;;;;;5072859;28;20274;-70
2021/09/01 09:00:07;;;;;;;;;;;17.20;99.90;;;;;;5073326;28;19913;-69
2021/09/01 09:02:34;;;;;;;;;;;17.20;99.90;;;;;;5073083;28;20014;-69
2021/09/01 09:05:08;;;;;;;;;;;17.20;99.90;;;;;;5073143;28;19909;-69
2021/09/01 09:07:53;;;;;;;;;;;17.10;99.90;;;;;;5075010;28;19920;-68
2021/09/01 09:10:30;;;;;;;;;;;17.30;99.90;;;;;;5075153;28;19912;-69
2021/09/01 09:13:01;;;;;;;;;;;17.30;99.90;;;;;;5074552;28;20283;-69
2021/09/01 09:15:28;;;;;;;;;;;17.30;99.90;;;;;;5074847;28;19915;-68
2021/09/01 09:17:55;;;;;;;;;;;17.30;99.90;;;;;;5074482;28;19908;-68
2021/09/01 09:20:26;;;;;;;;;;;17.30;99.90;;;;;;5075050;28;19955;-68
2021/09/01 09:22:53;;;;;;;;;;;17.30;99.90;;;;;;5074787;28;19954;-68
2021/09/01 09:25:23;;;;;;;;;;;17.30;99.90;;;;;;5107178;28;20267;-68
2021/09/01 09:27:50;;;;;;;;;;;17.30;99.90;;;;;;5090102;28;20246;-68
2021/09/01 09:30:20;;;;;;;;;;;17.20;99.90;;;;;;5074842;28;19948;-68
2021/09/01 09:33:07;;;;;;;;;;;17.20;99.90;;;;;;5074757;28;19909;-68
2021/09/01 09:35:47;;;;;;;;;;;17.20;99.90;;;;;;5074498;28;19962;-68
2021/09/01 09:38:14;;;;;;;;;;;17.30;99.90;;;;;;5074653;28;19912;-68
2021/09/01 09:40:44;;;;;;;;;;;17.20;99.90;;;;;;5074752;28;19970;-68
2021/09/01 09:43:15;;;;;;;;;;;17.20;99.90;;;;;;5074558;28;19909;-68
2021/09/01 09:45:42;;;;;;;;;;;17.10;99.90;;;;;;5089540;28;20106;-68
2021/09/01 09:48:08;;;;;;;;;;;17.20;99.90;;;;;;5074586;28;19987;-68
2021/09/01 09:50:35;;;;;;;;;;;17.10;99.90;;;;;;5074383;28;19913;-69
2021/09/01 09:53:02;;;;;;;;;;;17.10;99.90;;;;;;5074298;28;19948;-68
2021/09/01 09:55:28;;;;;;;;;;;17.10;99.90;;;;;;5074423;28;19915;-69
2021/09/01 09:57:56;;;;;;;;;;;17.10;99.90;;;;;;5073725;28;20355;-68
2021/09/01 10:00:24;;;;;;;;;;;17.10;99.90;;;;;;5074342;28;20370;-69
2021/09/01 10:02:51;;;;;;;;;;;17.10;99.90;;;;;;5074350;28;20373;-69
2021/09/01 10:05:23;;;;;;;;;;;17.10;99.90;;;;;;5074263;28;19926;-68
2021/09/01 10:07:50;;;;;;;;;;;17.10;99.90;;;;;;5074638;28;19974;-68
2021/09/01 10:10:17;;;;;;;;;;;17.10;99.90;;;;;;5074601;28;19915;-69
2021/09/01 10:12:48;;;;;;;;;;;17.20;99.90;;;;;;5073700;28;19908;-69
2021/09/01 10:15:40;;;;;;;;;;;17.10;99.90;;;;;;5074052;28;19908;-68
2021/09/01 10:18:10;;;;;;;;;;;17.10;99.90;;;;;;5072677;28;19919;-68
2021/09/01 10:20:42;;;;;;;;;;;17.10;99.90;;;;;;5073761;28;19909;-68
2021/09/01 10:23:10;;;;;;;;;;;17.10;99.90;;;;;;5073650;28;19908;-70
2021/09/01 10:25:36;;;;;;;;;;;17.10;99.90;;;;;;5073288;28;20351;-69
2021/09/01 10:28:21;;;;;;;;;;;17.00;99.90;;;;;;5072967;28;20359;-68
2021/09/01 10:31:06;;;;;;;;;;;17.00;99.90;;;;;;5072940;28;19909;-69
2021/09/01 10:33:36;;;;;;;;;;;17.10;99.90;;;;;;5073428;28;19915;-69
2021/09/01 10:36:21;;;;;;;;;;;17.10;99.90;;;;;;5073579;28;19908;-68
2021/09/01 10:38:47;;;;;;;;;;;17.10;99.90;;;;;;5073409;28;20004;-68
2021/09/01 10:41:26;;;;;;;;;;;17.00;99.90;;;;;;5073019;28;19961;-69
2021/09/01 10:44:16;;;;;;;;;;;17.10;99.90;;;;;;5072015;28;20263;-70
2021/09/01 10:46:52;;;;;;;;;;;17.10;99.90;;;;;;5063003;28;19928;-69
2021/09/01 10:49:20;;;;;;;;;;;17.00;99.90;;;;;;5073418;28;19988;-69
2021/09/01 10:51:56;;;;;;;;;;;17.00;99.90;;;;;;5072978;28;19908;-69
2021/09/01 10:54:27;;;;;;;;;;;17.00;99.90;;;;;;5073410;28;19908;-70
2021/09/01 10:56:53;;;;;;;;;;;17.00;99.90;;;;;;5073317;28;19909;-69
2021/09/01 10:59:52;;;;;;;;;;;17.00;99.90;;;;;;5073103;28;19912;-69
2021/09/01 11:02:22;;;;;;;;;;;17.00;99.90;;;;;;5060941;28;19908;-69
2021/09/01 11:04:56;;;;;;;;;;;16.90;99.90;;;;;;5072915;28;19909;-68
2021/09/01 11:07:26;;;;;;;;;;;16.90;99.90;;;;;;5072826;28;20336;-69
2021/09/01 11:09:58;;;;;;;;;;;16.80;99.90;;;;;;5072644;28;19909;-69
2021/09/01 11:12:25;;;;;;;;;;;16.80;99.90;;;;;;5072258;28;20034;-69
2021/09/01 11:14:52;;;;;;;;;;;16.80;99.90;;;;;;5072486;28;19913;-69
2021/09/01 11:17:21;;;;;;;;;;;16.70;99.90;;;;;;5072781;28;20050;-69
2021/09/01 11:19:49;;;;;;;;;;;16.70;99.90;;;;;;5072488;28;20038;-69
2021/09/01 11:22:17;;;;;;;;;;;16.70;99.90;;;;;;5072563;28;19946;-69
2021/09/01 11:24:46;;;;;;;;;;;16.70;99.90;;;;;;5072469;28;20341;-70
2021/09/01 11:27:16;;;;;;;;;;;16.70;99.90;;;;;;5072217;28;19927;-69
2021/09/01 11:29:43;;;;;;;;;;;16.70;99.90;;;;;;5072120;28;19916;-68
2021/09/01 11:32:13;;;;;;;;;;;16.70;99.90;;;;;;5072551;28;19913;-68
2021/09/01 11:34:40;;;;;;;;;;;16.70;99.90;;;;;;5072604;28;19915;-67
2021/09/01 11:37:07;;;;;;;;;;;16.80;99.90;;;;;;5072290;28;20072;-69
2021/09/01 11:39:39;;;;;;;;;;;16.80;99.90;;;;;;5072250;28;20274;-68
2021/09/01 11:42:06;;;;;;;;;;;16.80;99.90;;;;;;5072321;28;19996;-68
2021/09/01 11:44:33;;;;;;;;;;;16.70;99.90;;;;;;5071122;28;19909;-68
2021/09/01 11:46:59;;;;;;;;;;;16.70;99.90;;;;;;5072328;28;19924;-67
2021/09/01 11:49:26;;;;;;;;;;;16.60;99.90;;;;;;5072467;28;19940;-68
2021/09/01 11:51:54;;;;;;;;;;;16.60;99.90;;;;;;5072157;28;20359;-68
2021/09/01 11:54:21;;;;;;;;;;;16.60;99.90;;;;;;5072414;28;19908;-68
2021/09/01 11:56:48;;;;;;;;;;;16.60;99.90;;;;;;5072349;28;19908;-68
2021/09/01 11:59:15;;;;;;;;;;;16.60;99.90;;;;;;5071720;28;19909;-68
2021/09/01 12:01:50;;;;;;;;;;;16.60;99.90;;;;;;5073799;28;20011;-68
2021/09/01 12:04:18;;;;;;;;;;;16.60;99.90;;;;;;5079251;28;19915;-69
2021/09/01 12:06:45;;;;;;;;;;;16.60;99.90;;;;;;5076318;28;19917;-68
2021/09/01 12:09:14;;;;;;;;;;;16.60;99.90;;;;;;5073324;28;19919;-68
2021/09/01 12:11:48;;;;;;;;;;;16.60;99.90;;;;;;5072681;28;19908;-69
2021/09/01 12:14:16;;;;;;;;;;;16.60;99.90;;;;;;5070884;28;19912;-68
2021/09/01 12:16:43;;;;;;;;;;;16.50;99.90;;;;;;5073367;28;19951;-68
2021/09/01 12:19:12;;;;;;;;;;;16.50;99.90;;;;;;5072897;28;20401;-68
2021/09/01 12:21:59;;;;;;;;;;;16.50;99.90;;;;;;5072746;28;20050;-69
2021/09/01 12:24:27;;;;;;;;;;;16.50;99.90;;;;;;5072849;28;19920;-69
2021/09/01 12:26:53;;;;;;;;;;;16.40;99.90;;;;;;5072118;28;20011;-68
2021/09/01 12:29:29;;;;;;;;;;;16.50;99.90;;;;;;5072329;28;19912;-68
2021/09/01 12:31:56;;;;;;;;;;;16.40;99.90;;;;;;5071924;28;19919;-68
2021/09/01 12:34:28;;;;;;;;;;;16.40;99.90;;;;;;5071857;28;20283;-69
2021/09/01 12:36:59;;;;;;;;;;;16.40;99.90;;;;;;5070673;28;19909;-68
2021/09/01 12:39:25;;;;;;;;;;;16.40;99.90;;;;;;5071862;28;19913;-68
2021/09/01 12:41:52;;;;;;;;;;;16.50;99.90;;;;;;5071104;28;19912;-69
2021/09/01 12:44:19;;;;;;;;;;;16.50;99.90;;;;;;5071906;28;20355;-68
2021/09/01 12:46:45;;;;;;;;;;;16.50;99.90;;;;;;5104265;28;19931;-69
2021/09/01 12:49:27;;;;;;;;;;;16.50;99.90;;;;;;5071811;28;19919;-69
2021/09/01 12:51:53;;;;;;;;;;;16.50;99.90;;;;;;5071708;28;20004;-69
2021/09/01 12:54:22;;;;;;;;;;;16.40;99.90;;;;;;5073946;28;19912;-69
2021/09/01 12:56:51;;;;;;;;;;;16.40;99.90;;;;;;5073370;28;19939;-69
2021/09/01 12:59:18;;;;;;;;;;;16.40;99.90;;;;;;5075374;28;20322;-69
2021/09/01 13:01:44;;;;;;;;;;;16.40;99.90;;;;;;5075405;28;19909;-69
2021/09/01 13:04:11;;;;;;;;;;;16.30;99.90;;;;;;5074998;28;20409;-69
2021/09/01 13:06:38;;;;;;;;;;;16.40;99.90;;;;;;5075116;28;19947;-69
2021/09/01 13:09:05;;;;;;;;;;;16.30;99.90;;;;;;5075010;28;19913;-69
2021/09/01 13:11:32;;;;;;;;;;;16.30;99.90;;;;;;5074823;28;19908;-69
2021/09/01 13:13:58;;;;;;;;;;;16.10;99.90;;;;;;5075280;28;19915;-69
2021/09/01 13:16:25;;;;;;;;;;;16.00;99.90;;;;;;5075562;28;19977;-70
2021/09/01 13:18:52;;;;;;;;;;;15.90;99.90;;;;;;5075641;28;19908;-69
2021/09/01 13:21:19;;;;;;;;;;;15.80;99.90;;;;;;5074953;28;19924;-69
2021/09/01 13:23:45;;;;;;;;;;;15.80;99.90;;;;;;5106824;28;19921;-68
2021/09/01 13:26:12;;;;;;;;;;;15.70;99.90;;;;;;5074775;28;20379;-68
2021/09/01 13:28:39;;;;;;;;;;;15.70;99.90;;;;;;5074567;28;19916;-69
2021/09/01 13:31:05;;;;;;;;;;;15.70;99.90;;;;;;5074845;28;20053;-69
2021/09/01 13:33:32;;;;;;;;;;;15.80;99.90;;;;;;5106861;28;19915;-69
2021/09/01 13:35:58;;;;;;;;;;;15.80;99.90;;;;;;5074622;28;19909;-69
2021/09/01 13:38:25;;;;;;;;;;;15.90;99.90;;;;;;5074702;28;19913;-69
2021/09/01 13:40:53;;;;;;;;;;;15.90;99.90;;;;;;5074466;28;19920;-69
2021/09/01 13:43:19;;;;;;;;;;;16.00;99.90;;;;;;5074025;28;19915;-69
2021/09/01 13:45:46;;;;;;;;;;;15.90;99.90;;;;;;5074078;28;19928;-69
2021/09/01 13:48:13;;;;;;;;;;;15.80;99.90;;;;;;5074304;28;20309;-68
2021/09/01 13:50:43;;;;;;;;;;;15.80;99.90;;;;;;5074476;28;19908;-69
2021/09/01 13:53:09;;;;;;;;;;;15.80;99.90;;;;;;5074454;28;19909;-68
2021/09/01 13:55:37;;;;;;;;;;;15.90;99.90;;;;;;5072751;28;20007;-68
2021/09/01 13:58:03;;;;;;;;;;;15.80;99.90;;;;;;5074033;28;19909;-70
2021/09/01 14:00:34;;;;;;;;;;;15.90;99.90;;;;;;5074286;28;19909;-69
2021/09/01 14:03:07;;;;;;;;;;;15.80;99.90;;;;;;5074355;28;19908;-69
2021/09/01 14:05:34;;;;;;;;;;;15.90;99.90;;;;;;5105504;28;19950;-69
2021/09/01 14:08:00;;;;;;;;;;;16.00;99.90;;;;;;5074225;28;19908;-69
2021/09/01 14:10:27;;;;;;;;;;;16.00;99.90;;;;;;5073899;28;19909;-69
2021/09/01 14:12:54;;;;;;;;;;;16.00;99.90;;;;;;5073742;28;20411;-69
2021/09/01 14:15:21;;;;;;;;;;;16.00;99.90;;;;;;5073838;28;19909;-68
2021/09/01 14:17:47;;;;;;;;;;;16.00;99.90;;;;;;5073658;28;19913;-69
2021/09/01 14:20:14;;;;;;;;;;;15.90;99.90;;;;;;5073708;28;19909;-69
2021/09/01 14:22:41;;;;;;;;;;;15.90;99.90;;;;;;5073846;28;19915;-70
2021/09/01 14:25:08;;;;;;;;;;;15.80;99.90;;;;;;5073781;28;19924;-69